Time;durP1;ratioP1;P1;durP2;ratioP2;P2;SDS_P1;SDS_P2;PMS_P1;PMS_P2;Temp;Humidity;BMP_temperature;BMP_pressure;BME280_temperature;BME280_humidity;BME280_pressure;Samples;Min_cycle;Max_cycle;Signal;HPM_P1;HPM_P2
2023/12/25 00:01:35;;;;;;;;;;;;;;;17.81;65.49;100469.34;7390156;19;1470;-45
2023/12/25 00:04:06;;;;;;;;;;;;;;;18.31;64.10;100444.44;7391783;19;1394;-46
2023/12/25 00:06:35;;;;;;;;;;;;;;;18.33;63.95;100454.00;7391173;19;1867;-45
2023/12/25 00:09:03;;;;;;;;;;;;;;;18.09;64.36;100449.88;7390433;19;1931;-45
2023/12/25 00:11:31;;;;;;;;;;;;;;;17.88;64.98;100451.78;7391487;19;1394;-45
2023/12/25 00:14:00;;;;;;;;;;;;;;;17.75;65.41;100469.88;7391293;19;1859;-45
2023/12/25 00:16:28;;;;;;;;;;;;;;;17.74;65.57;100462.81;7391638;19;1496;-45
2023/12/25 00:18:58;;;;;;;;;;;;;;;17.65;66.08;100453.78;7390933;19;1914;-45
2023/12/25 00:21:29;;;;;;;;;;;;;;;17.64;66.32;100473.47;7390867;19;1533;-45
2023/12/25 00:23:57;;;;;;;;;;;;;;;17.58;66.22;100464.16;7390472;19;1661;-45
2023/12/25 00:26:26;;;;;;;;;;;;;;;17.52;66.51;100464.69;7391149;19;1477;-46
2023/12/25 00:28:54;;;;;;;;;;;;;;;17.73;66.07;100455.78;7374293;19;1407;-46
2023/12/25 00:31:22;;;;;;;;;;;;;;;18.33;64.71;100469.22;7389715;19;1585;-46
2023/12/25 00:33:51;;;;;;;;;;;;;;;18.39;64.01;100455.28;7389787;19;1849;-46
2023/12/25 00:36:19;;;;;;;;;;;;;;;18.14;64.57;100470.03;7390337;19;1461;-45
2023/12/25 00:38:50;;;;;;;;;;;;;;;17.91;65.08;100462.22;7389699;19;1504;-46
2023/12/25 00:41:18;;;;;;;;;;;;;;;17.69;65.91;100468.59;7390751;19;1394;-45
2023/12/25 00:43:46;;;;;;;;;;;;;;;17.64;66.10;100462.78;7390121;19;1578;-45
2023/12/25 00:46:15;;;;;;;;;;;;;;;17.63;66.39;100458.44;7389551;19;1393;-45
2023/12/25 00:48:43;;;;;;;;;;;;;;;17.62;66.48;100475.44;7390032;19;1457;-45
2023/12/25 00:51:11;;;;;;;;;;;;;;;17.62;66.32;100512.88;7389101;19;1595;-44
2023/12/25 00:53:40;;;;;;;;;;;;;;;17.48;66.60;100458.75;7389071;19;1851;-44
2023/12/25 00:56:11;;;;;;;;;;;;;;;17.46;66.68;100459.88;7389457;19;1392;-45
2023/12/25 00:58:39;;;;;;;;;;;;;;;17.52;66.74;100474.53;7389770;19;1506;-45
2023/12/25 01:01:08;;;;;;;;;;;;;;;17.49;66.59;100454.28;7389187;19;1537;-45
2023/12/25 01:03:36;;;;;;;;;;;;;;;17.48;66.60;100456.09;7389618;19;1519;-45
2023/12/25 01:06:05;;;;;;;;;;;;;;;17.44;66.69;100462.69;7388708;19;1530;-46
2023/12/25 01:08:34;;;;;;;;;;;;;;;17.97;65.52;100458.16;7387255;19;1966;-45
2023/12/25 01:11:05;;;;;;;;;;;;;;;18.38;64.19;100449.09;7387693;19;1465;-46
2023/12/25 01:13:36;;;;;;;;;;;;;;;18.17;64.72;100433.13;7389044;19;1841;-45
2023/12/25 01:16:04;;;;;;;;;;;;;;;17.94;65.24;100439.69;7389449;19;1768;-45
2023/12/25 01:18:33;;;;;;;;;;;;;;;17.82;65.76;100455.81;7388968;19;1433;-45
2023/12/25 01:21:01;;;;;;;;;;;;;;;17.58;66.28;100449.94;7388182;19;1457;-46
2023/12/25 01:23:29;;;;;;;;;;;;;;;17.55;66.69;100458.22;7388791;19;1468;-45
2023/12/25 01:25:58;;;;;;;;;;;;;;;17.56;66.59;100459.94;7387806;19;1393;-46
2023/12/25 01:28:26;;;;;;;;;;;;;;;17.57;66.50;100461.63;7373493;19;1497;-45
2023/12/25 01:30:57;;;;;;;;;;;;;;;17.53;66.70;100444.13;7388943;19;1577;-45
2023/12/25 01:33:25;;;;;;;;;;;;;;;17.33;67.13;100445.88;7391201;19;1458;-46
2023/12/25 01:35:54;;;;;;;;;;;;;;;17.84;66.08;100448.53;7391582;19;1550;-46
2023/12/25 01:38:22;;;;;;;;;;;;;;;18.28;64.70;100427.66;7390603;19;1500;-45
2023/12/25 01:40:50;;;;;;;;;;;;;;;18.35;64.24;100432.47;7392711;19;1561;-45
2023/12/25 01:43:21;;;;;;;;;;;;;;;18.07;64.85;100424.25;7398243;19;1491;-46
2023/12/25 01:45:49;;;;;;;;;;;;;;;17.88;65.26;100441.91;7399364;19;1627;-45
2023/12/25 01:48:20;;;;;;;;;;;;;;;17.65;65.90;100421.69;7397403;19;1382;-46
2023/12/25 01:50:49;;;;;;;;;;;;;;;17.62;66.09;100421.97;7399691;19;1592;-46
2023/12/25 01:53:17;;;;;;;;;;;;;;;17.57;66.48;100418.84;7400040;19;1567;-44
2023/12/25 01:55:45;;;;;;;;;;;;;;;17.53;66.57;100415.59;7395274;19;1864;-45
2023/12/25 01:58:14;;;;;;;;;;;;;;;17.53;66.38;100412.94;7399392;19;1460;-45
2023/12/25 02:00:42;;;;;;;;;;;;;;;17.38;66.64;100420.44;7396601;19;1473;-45
2023/12/25 02:03:10;;;;;;;;;;;;;;;17.95;65.57;100396.75;7393545;19;1874;-44
2023/12/25 02:05:41;;;;;;;;;;;;;;;18.28;64.34;100389.31;7395353;19;1572;-45
2023/12/25 02:08:13;;;;;;;;;;;;;;;18.10;64.75;100410.56;7395561;19;1472;-46
2023/12/25 02:10:42;;;;;;;;;;;;;;;17.83;65.61;100404.06;7394876;19;1489;-45
2023/12/25 02:13:10;;;;;;;;;;;;;;;17.77;65.64;100409.91;7395304;19;1415;-45
2023/12/25 02:15:39;;;;;;;;;;;;;;;17.54;66.40;100393.22;7392349;19;1849;-45
2023/12/25 02:18:07;;;;;;;;;;;;;;;17.55;66.45;100402.06;7395202;19;1460;-45
2023/12/25 02:20:36;;;;;;;;;;;;;;;17.48;66.69;100415.97;7394780;19;1489;-45
2023/12/25 02:23:08;;;;;;;;;;;;;;;17.54;66.50;100408.41;7393490;19;1493;-45
2023/12/25 02:25:37;;;;;;;;;;;;;;;17.41;66.73;100401.47;7393965;19;1367;-45
2023/12/25 02:28:08;;;;;;;;;;;;;;;17.61;66.36;100391.72;7379655;19;1405;-44
2023/12/25 02:30:37;;;;;;;;;;;;;;;18.26;64.62;100393.97;7394637;19;1481;-46
2023/12/25 02:33:05;;;;;;;;;;;;;;;18.97;62.54;100395.53;7395691;19;1489;-45
2023/12/25 02:35:33;;;;;;;;;;;;;;;19.35;61.44;100391.88;7392970;19;1830;-46
2023/12/25 02:38:02;;;;;;;;;;;;;;;19.71;60.41;100399.22;7395275;19;1259;-45
2023/12/25 02:40:30;;;;;;;;;;;;;;;19.84;60.09;100413.16;7394485;19;2043;-45
2023/12/25 02:42:58;;;;;;;;;;;;;;;19.56;60.86;100393.50;7392475;19;1557;-45
2023/12/25 02:45:29;;;;;;;;;;;;;;;19.41;61.42;100399.31;7393685;19;1587;-45
2023/12/25 02:47:58;;;;;;;;;;;;;;;19.38;61.32;100388.91;7394073;19;1465;-45
2023/12/25 02:50:26;;;;;;;;;;;;;;;19.34;61.55;100400.94;7394411;19;1483;-45
2023/12/25 02:52:54;;;;;;;;;;;;;;;19.35;61.64;100391.03;7393276;19;1464;-45
2023/12/25 02:55:23;;;;;;;;;;;;;;;19.54;61.18;100374.88;7391872;19;1856;-45
2023/12/25 02:57:51;;;;;;;;;;;;;;;19.67;60.73;100380.72;7393702;19;1485;-45
2023/12/25 03:00:20;;;;;;;;;;;;;;;19.75;60.45;100376.47;7393318;19;1516;-45
2023/12/25 03:02:51;;;;;;;;;;;;;;;19.84;60.27;100371.06;7392854;19;1572;-45
2023/12/25 03:05:16;;;;;;;;;;;;;;;19.90;60.13;100360.72;7392823;19;1480;-45
2023/12/25 03:07:45;;;;;;;;;;;;;;;20.00;59.83;100370.41;7393625;19;1477;-46
2023/12/25 03:10:13;;;;;;;;;;;;;;;20.06;59.56;100371.63;7392478;19;1452;-45
2023/12/25 03:12:41;;;;;;;;;;;;;;;20.12;59.59;100372.88;7392908;19;1576;-50
2023/12/25 03:15:10;;;;;;;;;;;;;;;20.18;59.50;100365.03;7391572;19;1863;-45
2023/12/25 03:17:38;;;;;;;;;;;;;;;20.21;59.23;100362.06;7393300;19;1457;-45
2023/12/25 03:20:10;;;;;;;;;;;;;;;20.29;59.11;100355.91;7393004;19;1410;-44
2023/12/25 03:22:38;;;;;;;;;;;;;;;20.25;59.03;100352.69;7392347;19;1587;-45
2023/12/25 03:25:07;;;;;;;;;;;;;;;20.36;59.09;100353.47;7393381;19;1402;-45
2023/12/25 03:27:36;;;;;;;;;;;;;;;20.39;58.73;100356.69;7383289;19;1456;-45
2023/12/25 03:30:04;;;;;;;;;;;;;;;19.98;59.78;100360.81;7392300;19;1433;-45
2023/12/25 03:32:33;;;;;;;;;;;;;;;19.76;60.50;100346.81;7392236;19;1381;-45
2023/12/25 03:35:02;;;;;;;;;;;;;;;19.77;60.72;100353.88;7391250;19;1864;-45
2023/12/25 03:37:33;;;;;;;;;;;;;;;19.70;60.69;100347.41;7392371;19;1481;-45
2023/12/25 03:40:01;;;;;;;;;;;;;;;19.64;60.67;100358.72;7392979;19;1788;-45
2023/12/25 03:42:29;;;;;;;;;;;;;;;19.58;60.95;100353.97;7390692;19;1248;-45
2023/12/25 03:44:58;;;;;;;;;;;;;;;19.58;61.11;100360.16;7392580;19;1378;-45
2023/12/25 03:47:28;;;;;;;;;;;;;;;19.70;60.74;100371.53;7392458;19;1187;-45
2023/12/25 03:49:57;;;;;;;;;;;;;;;19.63;60.74;100346.28;7392578;19;1761;-45
2023/12/25 03:52:25;;;;;;;;;;;;;;;19.62;60.81;100353.50;7391616;19;1828;-45
2023/12/25 03:54:56;;;;;;;;;;;;;;;19.67;60.87;100359.25;7391760;19;1841;-45
2023/12/25 03:57:24;;;;;;;;;;;;;;;19.56;60.90;100350.59;7391779;19;1477;-46
2023/12/25 03:59:53;;;;;;;;;;;;;;;19.52;61.09;100343.81;7390970;19;1487;-45
2023/12/25 04:02:21;;;;;;;;;;;;;;;19.14;61.96;100351.03;7390337;19;1375;-46
2023/12/25 04:04:50;;;;;;;;;;;;;;;18.83;62.78;100360.16;7389301;19;2072;-45
2023/12/25 04:07:18;;;;;;;;;;;;;;;18.54;63.46;100337.88;7390504;19;1555;-45
2023/12/25 04:09:46;;;;;;;;;;;;;;;18.43;63.83;100352.28;7389586;19;1541;-45
2023/12/25 04:12:17;;;;;;;;;;;;;;;18.44;63.87;100360.19;7391563;19;1398;-45
2023/12/25 04:14:46;;;;;;;;;;;;;;;18.77;62.94;100338.44;7390627;19;1838;-46
2023/12/25 04:17:14;;;;;;;;;;;;;;;19.01;62.29;100336.13;7390507;19;1472;-45
2023/12/25 04:19:43;;;;;;;;;;;;;;;18.82;62.57;100333.50;7390877;19;1372;-46
2023/12/25 04:22:13;;;;;;;;;;;;;;;18.59;63.15;100331.13;7392941;19;1385;-45
2023/12/25 04:24:41;;;;;;;;;;;;;;;18.44;63.66;100333.41;7391612;19;1315;-45
2023/12/25 04:27:09;;;;;;;;;;;;;;;18.56;63.35;100307.31;7390839;19;1818;-45
2023/12/25 04:29:40;;;;;;;;;;;;;;;18.80;63.05;100322.06;7376227;19;1369;-45
2023/12/25 04:32:09;;;;;;;;;;;;;;;19.04;62.47;100318.94;7390766;19;1490;-45
2023/12/25 04:34:38;;;;;;;;;;;;;;;18.80;62.59;100322.06;7390648;19;1853;-45
2023/12/25 04:37:06;;;;;;;;;;;;;;;18.54;63.25;100324.50;7390531;19;1423;-44
2023/12/25 04:39:35;;;;;;;;;;;;;;;18.31;64.09;100326.66;7390099;19;1489;-45
2023/12/25 04:42:03;;;;;;;;;;;;;;;18.51;63.64;100317.59;7390495;19;1408;-45
2023/12/25 04:44:32;;;;;;;;;;;;;;;18.77;62.85;100308.97;7391290;19;1533;-45
2023/12/25 04:47:03;;;;;;;;;;;;;;;18.96;62.26;100306.25;7390246;19;1858;-45
2023/12/25 04:49:31;;;;;;;;;;;;;;;19.24;61.78;100306.28;7390700;19;1572;-45
2023/12/25 04:52:00;;;;;;;;;;;;;;;19.33;61.51;100301.88;7389266;19;1354;-45
2023/12/25 04:54:28;;;;;;;;;;;;;;;19.26;61.45;100323.06;7389589;19;1515;-44
2023/12/25 04:56:57;;;;;;;;;;;;;;;19.26;61.56;100323.06;7387501;19;1845;-44
2023/12/25 04:59:25;;;;;;;;;;;;;;;19.26;61.58;100344.53;7389721;19;1492;-45
2023/12/25 05:01:53;;;;;;;;;;;;;;;19.32;61.45;100360.00;7390159;19;1651;-46
2023/12/25 05:04:24;;;;;;;;;;;;;;;19.29;61.20;100336.16;7390134;19;1469;-45
2023/12/25 05:06:53;;;;;;;;;;;;;;;19.29;61.33;100354.94;7389141;19;1418;-45
2023/12/25 05:09:21;;;;;;;;;;;;;;;19.23;61.61;100321.50;7388448;19;1854;-45
2023/12/25 05:11:50;;;;;;;;;;;;;;;19.21;61.61;100325.34;7388277;19;1378;-45
2023/12/25 05:14:18;;;;;;;;;;;;;;;19.12;61.99;100315.50;7389067;19;1518;-45
2023/12/25 05:16:46;;;;;;;;;;;;;;;19.04;62.33;100316.25;7392793;19;1846;-45
2023/12/25 05:19:15;;;;;;;;;;;;;;;19.10;62.14;100360.34;7397099;19;1848;-45
2023/12/25 05:21:46;;;;;;;;;;;;;;;19.10;62.13;100309.44;7396227;19;1540;-45
2023/12/25 05:24:14;;;;;;;;;;;;;;;19.12;62.12;100327.06;7396150;19;1643;-45
2023/12/25 05:26:42;;;;;;;;;;;;;;;19.11;62.30;100321.84;7396026;19;1452;-46
2023/12/25 05:29:11;;;;;;;;;;;;;;;19.08;62.22;100313.13;7381739;19;1394;-45
2023/12/25 05:31:39;;;;;;;;;;;;;;;19.05;62.54;100336.69;7396616;19;1539;-45
2023/12/25 05:34:08;;;;;;;;;;;;;;;19.04;62.28;100319.78;7395352;19;1304;-45
2023/12/25 05:36:36;;;;;;;;;;;;;;;19.08;62.17;100323.84;7393604;19;1849;-45
2023/12/25 05:39:07;;;;;;;;;;;;;;;19.06;62.38;100317.78;7396887;19;1549;-45
2023/12/25 05:41:35;;;;;;;;;;;;;;;19.05;62.52;100323.28;7394286;19;1382;-45
2023/12/25 05:44:03;;;;;;;;;;;;;;;19.04;62.56;100330.50;7394977;19;1590;-46
2023/12/25 05:46:32;;;;;;;;;;;;;;;19.04;62.41;100324.28;7395102;19;1456;-45
2023/12/25 05:49:01;;;;;;;;;;;;;;;19.05;62.62;100352.75;7393844;19;1417;-45
2023/12/25 05:51:29;;;;;;;;;;;;;;;19.02;62.41;100320.88;7394366;19;1584;-44
2023/12/25 05:53:58;;;;;;;;;;;;;;;19.10;62.37;100349.63;7394374;19;1452;-45
2023/12/25 05:56:29;;;;;;;;;;;;;;;19.10;62.26;100331.75;7393926;19;1864;-45
2023/12/25 05:58:57;;;;;;;;;;;;;;;19.21;61.98;100341.41;7396609;19;1472;-45
2023/12/25 06:01:25;;;;;;;;;;;;;;;19.24;61.80;100335.78;7395559;19;1517;-45
2023/12/25 06:03:54;;;;;;;;;;;;;;;19.19;62.00;100335.38;7395849;19;1568;-45
2023/12/25 06:06:22;;;;;;;;;;;;;;;19.23;62.01;100334.06;7394332;19;1567;-45
2023/12/25 06:08:50;;;;;;;;;;;;;;;19.12;62.10;100319.03;7396898;19;1559;-44
2023/12/25 06:11:19;;;;;;;;;;;;;;;19.19;62.00;100327.31;7395205;19;1843;-44
2023/12/25 06:13:50;;;;;;;;;;;;;;;19.24;61.81;100346.50;7395368;19;1552;-46
2023/12/25 06:16:18;;;;;;;;;;;;;;;19.33;61.44;100334.03;7393153;19;1851;-44
2023/12/25 06:18:46;;;;;;;;;;;;;;;19.37;61.45;100354.19;7395102;19;1461;-45
2023/12/25 06:21:15;;;;;;;;;;;;;;;19.30;61.70;100347.72;7395074;19;1477;-45
2023/12/25 06:23:45;;;;;;;;;;;;;;;19.22;61.76;100338.59;7394666;19;1485;-45
2023/12/25 06:26:13;;;;;;;;;;;;;;;19.30;61.88;100359.31;7394160;19;1285;-46
2023/12/25 06:28:42;;;;;;;;;;;;;;;19.25;61.79;100356.22;7378968;19;1489;-44
2023/12/25 06:31:13;;;;;;;;;;;;;;;19.29;61.68;100354.94;7391725;19;1527;-49
2023/12/25 06:33:41;;;;;;;;;;;;;;;19.34;61.79;100352.66;7392170;19;1437;-45
2023/12/25 06:36:09;;;;;;;;;;;;;;;19.34;61.92;100355.34;7393069;19;1861;-45
2023/12/25 06:38:38;;;;;;;;;;;;;;;19.32;61.72;100359.13;7394482;19;1498;-45
2023/12/25 06:41:06;;;;;;;;;;;;;;;19.36;61.76;100344.44;7394882;19;1616;-45
2023/12/25 06:43:34;;;;;;;;;;;;;;;19.35;61.83;100370.41;7392987;19;1477;-46
2023/12/25 06:46:00;;;;;;;;;;;;;;;19.33;61.75;100367.03;7394082;19;1519;-45
2023/12/25 06:48:31;;;;;;;;;;;;;;;19.31;61.96;100374.41;7394322;19;1432;-45
2023/12/25 06:51:00;;;;;;;;;;;;;;;19.33;62.08;100391.19;7394297;19;1464;-45
2023/12/25 06:53:28;;;;;;;;;;;;;;;19.39;61.71;100392.44;7393984;19;1382;-45
2023/12/25 06:55:56;;;;;;;;;;;;;;;19.38;61.72;100399.63;7391541;19;1853;-45
2023/12/25 06:58:24;;;;;;;;;;;;;;;19.35;61.59;100385.66;7393417;19;1406;-45
2023/12/25 07:00:53;;;;;;;;;;;;;;;19.39;61.90;100387.91;7393908;19;1548;-44
2023/12/25 07:03:21;;;;;;;;;;;;;;;19.37;61.86;100405.13;7394779;19;1387;-45
2023/12/25 07:05:52;;;;;;;;;;;;;;;19.34;61.80;100366.06;7393500;19;1572;-45
2023/12/25 07:08:20;;;;;;;;;;;;;;;19.42;61.64;100394.84;7393157;19;1840;-45
2023/12/25 07:10:49;;;;;;;;;;;;;;;19.43;61.59;100397.34;7392831;19;1510;-45
2023/12/25 07:13:17;;;;;;;;;;;;;;;19.43;61.86;100405.38;7392975;19;1432;-45
2023/12/25 07:15:45;;;;;;;;;;;;;;;19.41;61.60;100404.69;7392888;19;1837;-45
2023/12/25 07:18:14;;;;;;;;;;;;;;;19.46;61.56;100410.47;7393102;19;1452;-45
2023/12/25 07:20:43;;;;;;;;;;;;;;;19.48;61.59;100437.16;7393173;19;1521;-45
2023/12/25 07:23:14;;;;;;;;;;;;;;;19.48;61.61;100416.53;7393366;19;1493;-45
2023/12/25 07:25:42;;;;;;;;;;;;;;;19.50;61.56;100396.75;7392552;19;1475;-46
2023/12/25 07:28:11;;;;;;;;;;;;;;;19.47;61.76;100408.63;7392616;19;1564;-44
2023/12/25 07:30:39;;;;;;;;;;;;;;;19.51;61.50;100417.22;7378030;19;1568;-45
2023/12/25 07:33:07;;;;;;;;;;;;;;;19.45;61.63;100419.50;7393458;19;1452;-45
2023/12/25 07:35:36;;;;;;;;;;;;;;;19.49;61.57;100387.88;7392888;19;1857;-46
2023/12/25 07:38:04;;;;;;;;;;;;;;;19.50;61.60;100411.03;7392806;19;1409;-46
2023/12/25 07:40:35;;;;;;;;;;;;;;;19.54;61.50;100412.41;7391646;19;2004;-45
2023/12/25 07:43:07;;;;;;;;;;;;;;;19.57;61.25;100396.00;7390804;19;1443;-45
2023/12/25 07:45:35;;;;;;;;;;;;;;;19.62;61.35;100403.63;7391366;19;1534;-45
2023/12/25 07:48:03;;;;;;;;;;;;;;;19.64;61.09;100398.97;7390978;19;1442;-45
2023/12/25 07:50:32;;;;;;;;;;;;;;;19.70;61.17;100416.31;7390542;19;1458;-45
2023/12/25 07:53:00;;;;;;;;;;;;;;;19.71;61.30;100408.13;7388897;19;1544;-45
2023/12/25 07:55:30;;;;;;;;;;;;;;;19.58;61.41;100412.97;7390635;19;1581;-45
2023/12/25 07:58:01;;;;;;;;;;;;;;;19.21;62.31;100411.94;7390985;19;1853;-45
2023/12/25 08:00:29;;;;;;;;;;;;;;;18.90;63.19;100407.78;7391632;19;1292;-46
2023/12/25 08:02:58;;;;;;;;;;;;;;;18.68;63.56;100415.97;7391059;19;1685;-45
2023/12/25 08:05:26;;;;;;;;;;;;;;;18.76;63.61;100427.78;7391113;19;1574;-46
2023/12/25 08:07:54;;;;;;;;;;;;;;;18.98;62.98;100416.81;7390911;19;1489;-45
2023/12/25 08:10:23;;;;;;;;;;;;;;;19.41;62.18;100436.03;7393027;19;1382;-45
2023/12/25 08:12:51;;;;;;;;;;;;;;;19.23;62.52;100427.91;7390393;19;1521;-45
2023/12/25 08:15:22;;;;;;;;;;;;;;;18.98;62.90;100427.53;7390545;19;1567;-46
2023/12/25 08:17:50;;;;;;;;;;;;;;;18.81;63.28;100429.09;7386119;19;1891;-45
2023/12/25 08:20:19;;;;;;;;;;;;;;;18.90;64.29;100413.16;7389659;19;1345;-45
2023/12/25 08:22:47;;;;;;;;;;;;;;;19.34;63.22;100433.09;7387573;19;1224;-45
2023/12/25 08:25:16;;;;;;;;;;;;;;;19.38;62.91;100429.13;7384741;19;1486;-46
2023/12/25 08:27:44;;;;;;;;;;;;;;;19.23;63.19;100450.19;7382642;19;1218;-46
2023/12/25 08:30:13;;;;;;;;;;;;;;;18.97;63.75;100441.91;7372957;19;1526;-46
2023/12/25 08:32:44;;;;;;;;;;;;;;;18.77;64.08;100450.94;7387679;19;1383;-46
2023/12/25 08:35:13;;;;;;;;;;;;;;;19.02;63.66;100458.41;7390003;19;1754;-45
2023/12/25 08:37:41;;;;;;;;;;;;;;;19.51;62.43;100433.31;7385980;19;1844;-45
2023/12/25 08:40:10;;;;;;;;;;;;;;;19.26;63.45;100451.75;7386000;19;1442;-46
2023/12/25 08:42:38;;;;;;;;;;;;;;;19.01;64.82;100464.75;7384357;19;1241;-45
2023/12/25 08:45:07;;;;;;;;;;;;;;;18.81;65.36;100480.00;7381446;19;1188;-45
2023/12/25 08:47:36;;;;;;;;;;;;;;;18.98;65.05;100481.13;7384862;19;1565;-45
2023/12/25 08:50:07;;;;;;;;;;;;;;;19.39;63.77;100468.34;7384134;19;1511;-45
2023/12/25 08:52:35;;;;;;;;;;;;;;;19.36;63.98;100476.69;7385000;19;1398;-45
2023/12/25 08:55:04;;;;;;;;;;;;;;;19.10;64.43;100454.16;7383115;19;1482;-45
2023/12/25 08:57:35;;;;;;;;;;;;;;;19.02;65.13;100481.66;7385123;19;1864;-46
2023/12/25 09:00:05;;;;;;;;;;;;;;;18.86;66.20;100488.47;7388879;19;1160;-45
2023/12/25 09:02:34;;;;;;;;;;;;;;;19.27;64.52;100481.06;7386263;19;1325;-45
2023/12/25 09:05:02;;;;;;;;;;;;;;;19.66;63.57;100474.78;7388662;19;1314;-45
2023/12/25 09:07:33;;;;;;;;;;;;;;;19.50;64.07;100490.63;7390150;19;1757;-45
2023/12/25 09:10:02;;;;;;;;;;;;;;;19.20;63.79;100473.75;7387989;19;1846;-45
2023/12/25 09:12:30;;;;;;;;;;;;;;;19.04;64.20;100485.91;7386479;19;1409;-45
2023/12/25 09:14:59;;;;;;;;;;;;;;;19.11;64.54;100480.00;7388220;19;1438;-45
2023/12/25 09:17:27;;;;;;;;;;;;;;;19.35;63.74;100488.41;7387732;19;1853;-46
2023/12/25 09:19:56;;;;;;;;;;;;;;;19.23;64.11;100484.19;7387913;19;1235;-45
2023/12/25 09:22:27;;;;;;;;;;;;;;;19.08;64.59;100476.59;7390596;19;1301;-45
2023/12/25 09:24:58;;;;;;;;;;;;;;;19.04;65.00;100467.16;7390743;19;1538;-46
2023/12/25 09:27:26;;;;;;;;;;;;;;;19.00;65.68;100473.78;7391918;19;1375;-46
2023/12/25 09:29:56;;;;;;;;;;;;;;;19.30;65.57;100442.44;7376956;19;1780;-45
2023/12/25 09:32:27;;;;;;;;;;;;;;;19.46;64.99;100458.75;7393722;19;1792;-46
2023/12/25 09:34:55;;;;;;;;;;;;;;;19.28;65.46;100436.38;7393778;19;1487;-45
2023/12/25 09:37:23;;;;;;;;;;;;;;;19.13;65.70;100443.16;7392717;19;1844;-45
2023/12/25 09:39:51;;;;;;;;;;;;;;;18.96;66.36;100450.97;7391812;19;1500;-45
2023/12/25 09:42:23;;;;;;;;;;;;;;;18.99;66.18;100447.13;7392046;19;1512;-45
2023/12/25 09:44:53;;;;;;;;;;;;;;;19.26;65.46;100449.06;7393625;19;1058;-45
2023/12/25 09:47:22;;;;;;;;;;;;;;;19.44;65.15;100450.00;7389383;19;1516;-45
2023/12/25 09:49:50;;;;;;;;;;;;;;;19.34;65.10;100443.81;7388562;19;1502;-45
2023/12/25 09:52:19;;;;;;;;;;;;;;;19.21;65.54;100464.72;7389387;19;1246;-45
2023/12/25 09:54:47;;;;;;;;;;;;;;;19.00;65.61;100452.34;7388864;19;1429;-44
2023/12/25 09:57:17;;;;;;;;;;;;;;;18.92;65.92;100441.50;7385113;19;1832;-46
2023/12/25 09:59:50;;;;;;;;;;;;;;;19.47;65.09;100433.59;7385401;19;1465;-45
2023/12/25 10:02:19;;;;;;;;;;;;;;;19.57;64.46;100444.28;7390396;19;1255;-44
2023/12/25 10:04:49;;;;;;;;;;;;;;;19.38;65.11;100445.22;7395036;19;1394;-46
2023/12/25 10:07:20;;;;;;;;;;;;;;;19.24;65.29;100449.22;7393573;19;1548;-46
2023/12/25 10:09:48;;;;;;;;;;;;;;;18.97;64.26;100447.28;7396688;19;1413;-46
2023/12/25 10:12:17;;;;;;;;;;;;;;;18.90;63.53;100445.31;7392873;19;1760;-44
2023/12/25 10:14:48;;;;;;;;;;;;;;;19.25;63.56;100429.44;7397693;19;1414;-43
2023/12/25 10:17:16;;;;;;;;;;;;;;;19.63;62.40;100422.25;7394418;19;1841;-43
2023/12/25 10:19:55;;;;;;;;;;;;;;;19.53;62.39;100420.59;7394268;19;1458;-44
2023/12/25 10:22:33;;;;;;;;;;;;;;;19.28;64.35;100422.97;7393411;19;1664;-45
2023/12/25 10:25:06;;;;;;;;;;;;;;;19.18;65.14;100422.13;7394078;19;1351;-44
2023/12/25 10:27:35;;;;;;;;;;;;;;;19.11;64.21;100431.75;7393976;19;1464;-50
2023/12/25 10:30:06;;;;;;;;;;;;;;;19.01;63.95;100427.25;7381410;19;1163;-50
2023/12/25 10:32:35;;;;;;;;;;;;;;;18.99;64.33;100426.53;7395554;19;1445;-50
2023/12/25 10:35:13;;;;;;;;;;;;;;;18.91;64.48;100417.53;7394389;19;1930;-50
2023/12/25 10:37:42;;;;;;;;;;;;;;;18.87;64.67;100425.84;7391725;19;1862;-50
2023/12/25 10:40:21;;;;;;;;;;;;;;;18.84;64.88;100419.91;7395556;19;1659;-50
2023/12/25 10:42:50;;;;;;;;;;;;;;;18.83;64.87;100411.03;7391598;19;1477;-50
2023/12/25 10:45:23;;;;;;;;;;;;;;;18.80;64.98;100414.03;7391397;19;1598;-50
2023/12/25 10:47:53;;;;;;;;;;;;;;;18.78;65.09;100415.09;7390074;19;1804;-50
2023/12/25 10:50:24;;;;;;;;;;;;;;;18.72;65.08;100418.34;7391714;19;1614;-50
2023/12/25 10:52:54;;;;;;;;;;;;;;;18.69;65.12;100406.09;7390232;19;1818;-51
2023/12/25 10:55:26;;;;;;;;;;;;;;;18.66;65.21;100401.88;7392012;19;1974;-50
2023/12/25 10:57:57;;;;;;;;;;;;;;;18.63;65.33;100406.66;7387491;19;1858;-50
2023/12/25 11:00:30;;;;;;;;;;;;;;;18.61;65.45;100400.63;7394811;19;1626;-50
2023/12/25 11:03:00;;;;;;;;;;;;;;;18.58;65.58;100396.41;7393522;19;1788;-50
2023/12/25 11:05:30;;;;;;;;;;;;;;;18.54;65.76;100391.44;7395793;19;1657;-51
2023/12/25 11:07:59;;;;;;;;;;;;;;;18.51;65.68;100389.06;7395552;19;1827;-51
2023/12/25 11:10:29;;;;;;;;;;;;;;;18.48;65.93;100383.00;7395599;19;1034;-50
2023/12/25 11:12:58;;;;;;;;;;;;;;;18.48;65.71;100377.66;7392665;19;1801;-50
2023/12/25 11:15:29;;;;;;;;;;;;;;;18.44;65.99;100391.44;7393742;19;1677;-50
2023/12/25 11:17:58;;;;;;;;;;;;;;;18.43;65.93;100400.47;7392944;19;1844;-51
2023/12/25 11:20:26;;;;;;;;;;;;;;;18.40;65.98;100395.38;7392739;19;1180;-50
2023/12/25 11:22:57;;;;;;;;;;;;;;;18.43;65.63;100405.84;7394654;19;1710;-50
2023/12/25 11:25:25;;;;;;;;;;;;;;;18.45;65.77;100409.22;7394580;19;1398;-50
2023/12/25 11:27:54;;;;;;;;;;;;;;;18.39;65.90;100409.78;7394160;19;1658;-50
2023/12/25 11:30:25;;;;;;;;;;;;;;;18.40;65.76;100403.41;7380085;19;1248;-50
2023/12/25 11:32:56;;;;;;;;;;;;;;;18.38;65.81;100408.94;7396526;19;999;-50
2023/12/25 11:35:29;;;;;;;;;;;;;;;18.40;65.66;100390.03;7396146;19;1145;-50
2023/12/25 11:38:12;;;;;;;;;;;;;;;18.35;65.63;100389.63;7394018;19;1843;-50
2023/12/25 11:40:41;;;;;;;;;;;;;;;18.38;65.69;100405.41;7395808;19;1062;-50
2023/12/25 11:43:10;;;;;;;;;;;;;;;18.36;65.56;100392.16;7393590;19;1475;-50
2023/12/25 11:45:44;;;;;;;;;;;;;;;18.29;65.85;100394.53;7395159;19;1227;-50
2023/12/25 11:48:16;;;;;;;;;;;;;;;18.31;65.67;100397.09;7394263;19;1421;-50
2023/12/25 11:50:45;;;;;;;;;;;;;;;18.28;65.91;100408.06;7393033;19;1417;-50
2023/12/25 11:53:33;;;;;;;;;;;;;;;18.26;65.69;100397.53;7392919;19;1416;-50
2023/12/25 11:56:02;;;;;;;;;;;;;;;18.26;65.94;100393.97;7392992;19;1666;-51
2023/12/25 11:58:31;;;;;;;;;;;;;;;18.28;65.65;100392.88;7390430;19;1851;-50
2023/12/25 12:01:00;;;;;;;;;;;;;;;18.26;65.74;100394.84;7393541;19;1421;-50
2023/12/25 12:03:31;;;;;;;;;;;;;;;18.26;65.66;100392.16;7392963;19;1962;-50
2023/12/25 12:05:59;;;;;;;;;;;;;;;18.24;65.64;100395.94;7393340;19;1725;-50
2023/12/25 12:08:28;;;;;;;;;;;;;;;18.24;65.88;100396.81;7393135;19;1448;-50
2023/12/25 12:10:59;;;;;;;;;;;;;;;18.20;66.02;100403.41;7392904;19;1097;-50
2023/12/25 12:13:27;;;;;;;;;;;;;;;18.22;65.69;100389.88;7392725;19;2081;-53
2023/12/25 12:15:56;;;;;;;;;;;;;;;18.19;65.79;100385.66;7391116;19;1397;-50
2023/12/25 12:18:25;;;;;;;;;;;;;;;18.20;65.75;100395.38;7391390;19;1873;-50
2023/12/25 12:20:56;;;;;;;;;;;;;;;18.13;65.71;100399.59;7390173;19;1764;-50
2023/12/25 12:23:24;;;;;;;;;;;;;;;18.10;65.85;100397.19;7391247;19;1496;-50
2023/12/25 12:25:52;;;;;;;;;;;;;;;18.10;65.84;100389.16;7390474;19;1524;-50
2023/12/25 12:28:21;;;;;;;;;;;;;;;18.10;66.15;100405.22;7393082;19;1723;-50
2023/12/25 12:30:49;;;;;;;;;;;;;;;18.09;65.83;100408.91;7377833;19;1468;-50
2023/12/25 12:33:18;;;;;;;;;;;;;;;18.12;65.87;100397.91;7392437;19;1669;-50
2023/12/25 12:35:48;;;;;;;;;;;;;;;18.06;65.82;100403.81;7392957;19;1515;-50
2023/12/25 12:38:19;;;;;;;;;;;;;;;18.05;65.98;100405.66;7391502;19;1835;-50
2023/12/25 12:40:47;;;;;;;;;;;;;;;18.05;65.84;100380.72;7393174;19;1063;-50
2023/12/25 12:43:17;;;;;;;;;;;;;;;18.04;65.85;100398.59;7389290;19;1899;-50
2023/12/25 12:45:45;;;;;;;;;;;;;;;18.04;65.76;100408.44;7391824;19;1011;-50
2023/12/25 12:48:14;;;;;;;;;;;;;;;18.10;65.84;100450.72;7390911;19;1468;-50
2023/12/25 12:50:42;;;;;;;;;;;;;;;18.11;65.64;100411.44;7392204;19;1700;-50
2023/12/25 12:53:10;;;;;;;;;;;;;;;18.11;65.70;100422.97;7392396;19;1789;-50
2023/12/25 12:55:41;;;;;;;;;;;;;;;18.08;65.84;100425.91;7392374;19;1988;-50
2023/12/25 12:58:13;;;;;;;;;;;;;;;18.03;65.88;100420.16;7390485;19;1846;-50